WebCam (dist. 5.5Km Est) Villalvernia  WebCam (dist. 5.5Km Est) Villalvernia


WebCam (dist. 7Km Ovest) Basaluzzo  WebCam (dist. 7Km Ovest) Basaluzzo


WebCam (dist.13Km Ovest) Castelferro  WebCam (dist.13Km Ovest) Castelferro


WebCam (dist. 15Km Sud) Carrosio  WebCam (dist. 15Km Sud) Carrosio


Avvisi EUMETNET-METEOalarm

Temporali Zona: Piemonte --> Inizio Validità: 24-05-2019 11:00 Termine: 17:59 Avviso per: Temporali Livello Allerta: Giallo info button

NOTIZIE METEO

Report METAR

   
LIMV - Alessandria
Dati ricevuti: 23-05-2019 19:55
DATI Obsoleti
Molto nuvoloso  
Molto nuvoloso  
   Vento: Variabile Calma
Vento: Variabile Calma
Temperatura e Condizioni Meteo: 15°C
P.to Rugiada: 12°C
Umidità: 82%
Pressione: 1016 hPa
Copertura nuvolosa: Mostly Cloudy
Visibilità: oltre 10 km
Dettagli cop. nuvolosa: Molto nuvoloso 900 ft
LIMV 231755Z /////KT 9999 BKN009 15/12 Q1016
LIMJ - Genova
Dati ricevuti: 24-05-2019 09:50
Molto nuvoloso  
Molto nuvoloso  
   Vento: SE 7.4 km/h
Vento: SE 7.4 km/h
Temperatura e Condizioni Meteo: 18°C
P.to Rugiada: 13°C
Umidità: 73%
Pressione: 1015 hPa
Copertura nuvolosa: Mostly Cloudy
Visibilità: oltre 10 km
Dettagli cop. nuvolosa: Poche nuvole 2600 ft,
Molto nuvoloso 3500 ft
LIMJ 240750Z 14004KT 9999 FEW026 BKN035 18/13 Q1015
LIML - Milano
Dati ricevuti: 24-05-2019 09:50
Poche nuvole  
Poche nuvole  
   Vento: Ovest 5.6 km/h
Vento: Ovest 5.6 km/h
Temperatura e Condizioni Meteo: 20°C
P.to Rugiada: 12°C
Umidità: 60%
Pressione: 1014 hPa
Copertura nuvolosa: Few Clouds
Visibilità: oltre 10 km
Dettagli cop. nuvolosa: Poche nuvole 7000 ft
LIML 240750Z 27003KT 220V340 9999 FEW070 20/12 Q1014 NOSIG
LIMF - Torino
Dati ricevuti: 24-05-2019 09:50
Parz. nuvoloso  
Parz. nuvoloso  
   Vento: Est 7.4 km/h
Vento: Est 7.4 km/h
Temperatura e Condizioni Meteo: 18°C
P.to Rugiada: 13°C
Umidità: 73%
Pressione: 1014 hPa
Copertura nuvolosa: Partly Cloudy
Visibilità: oltre 10 km
Dettagli cop. nuvolosa: Parz. nuvoloso 6000 ft
LIMF 240750Z 10004KT 060V150 9999 SCT060 18/13 Q1014
LIRA - Roma
Dati ricevuti: 24-05-2019 09:50
Sereno  
Sereno  
   Vento: Variabile 3.7 km/h
Vento: Variabile 3.7 km/h
Temperatura e Condizioni Meteo: 19°C
P.to Rugiada: 13°C
Umidità: 68%
Pressione: 1015 hPa
Visibilità: oltre 10 km
Dettagli cop. nuvolosa: Sereno ft
LIRA 240750Z VRB02KT CAVOK 19/13 Q1015
LICJ - Palermo
Dati ricevuti: 24-05-2019 09:50
Sereno  
Sereno  
   Vento: NE 16.7 km/h
Vento: NE 16.7 km/h
Temperatura e Condizioni Meteo: 18°C
P.to Rugiada: 14°C
Umidità: 78%
Pressione: 1016 hPa
Visibilità: oltre 10 km
Dettagli cop. nuvolosa: Sereno ft
LICJ 240750Z 04009KT CAVOK 18/14 Q1016

Script sviluppato da  Saratoga-weather.org Adattato per il modello da  Weerstation Leuven

Potete trovare le nostre informazioni meteo anche su:

Meteonetwork

Linea Meteo

Weather Underground

AWEKAS

European Weather Network

PWS Weather

WeatherCloud

Citizen Weather Observer Program (CWOP)

Strumentazione in uso:

Meteo-stazione
Oregon Scientific WMR300

Meteo-programma
Weather Display

Meteo-server
Samsung N220

Oregon Scientific WMR300

Weather Display

Samsung N220


Banda Musicale Pozzolese


<